createdAt,value
2018-09-09T00:00:57.695Z,4.27
2018-09-09T00:06:01.493Z,4.30
2018-09-09T00:11:05.255Z,4.27
2018-09-09T00:16:09.270Z,4.07
2018-09-09T00:21:12.967Z,4.00
2018-09-09T00:26:16.866Z,3.87
2018-09-09T00:31:20.787Z,3.97
2018-09-09T00:36:24.643Z,3.57
2018-09-09T00:41:28.664Z,3.60
2018-09-09T00:46:32.832Z,3.50
2018-09-09T00:51:41.982Z,3.70
2018-09-09T00:56:58.808Z,3.50
2018-09-09T01:02:02.882Z,3.50
2018-09-09T01:07:06.686Z,4.40
2018-09-09T01:12:10.561Z,4.00
2018-09-09T01:17:14.427Z,4.57
2018-09-09T01:22:18.512Z,4.07
2018-09-09T01:27:22.338Z,3.67
2018-09-09T01:32:25.926Z,4.00
2018-09-09T01:37:29.676Z,3.70
2018-09-09T01:42:33.920Z,3.30
2018-09-09T01:47:37.955Z,3.37
2018-09-09T01:52:41.927Z,3.43
2018-09-09T01:57:45.751Z,3.63
2018-09-09T02:02:49.464Z,3.50
2018-09-09T02:13:27.685Z,3.53
2018-09-09T02:18:31.480Z,3.73
2018-09-09T02:23:35.298Z,3.90
2018-09-09T02:28:39.215Z,3.23
2018-09-09T02:33:43.077Z,4.07
2018-09-09T02:38:50.407Z,4.23
2018-09-09T02:43:54.147Z,3.90
2018-09-09T02:49:10.607Z,3.60
2018-09-09T02:54:14.652Z,3.57
2018-09-09T02:59:31.432Z,3.30
2018-09-09T03:04:35.482Z,3.43
2018-09-09T03:09:39.188Z,3.17
2018-09-09T03:14:43.116Z,3.17
2018-09-09T03:19:47.100Z,3.50
2018-09-09T03:24:51.299Z,3.23
2018-09-09T03:29:55.122Z,3.40
2018-09-09T03:34:58.748Z,3.40
2018-09-09T03:40:02.996Z,3.23
2018-09-09T03:45:07.004Z,3.27
2018-09-09T03:50:10.848Z,3.37
2018-09-09T03:55:14.729Z,2.90
2018-09-09T04:00:18.362Z,3.27
2018-09-09T04:05:21.946Z,3.10
2018-09-09T04:10:26.074Z,3.20
2018-09-09T04:15:29.988Z,3.00
2018-09-09T04:20:33.731Z,3.17
2018-09-09T04:25:37.684Z,2.90
2018-09-09T04:30:41.655Z,2.90
2018-09-09T04:35:45.305Z,3.10
2018-09-09T04:40:49.200Z,3.03
2018-09-09T04:45:52.831Z,2.87
2018-09-09T04:50:56.551Z,3.40
2018-09-09T04:56:00.179Z,2.73
2018-09-09T05:01:03.900Z,2.70
2018-09-09T05:06:07.600Z,3.07
2018-09-09T05:11:11.573Z,2.90
2018-09-09T05:16:15.299Z,3.10
2018-09-09T05:21:18.925Z,3.10
2018-09-09T05:26:22.689Z,2.60
2018-09-09T05:31:27.056Z,3.00
2018-09-09T05:36:30.841Z,2.83
2018-09-09T05:41:34.514Z,2.70
2018-09-09T05:46:38.459Z,2.70
2018-09-09T05:51:42.119Z,3.00
2018-09-09T05:56:45.659Z,3.20
2018-09-09T06:01:49.887Z,4.43
2018-09-09T06:06:53.822Z,2.70
2018-09-09T06:11:57.627Z,2.70
2018-09-09T06:17:01.430Z,2.77
2018-09-09T06:22:05.248Z,3.10
2018-09-09T06:27:09.435Z,3.17
2018-09-09T06:32:13.173Z,2.63
2018-09-09T06:37:17.559Z,3.10
2018-09-09T06:42:21.900Z,3.70
2018-09-09T06:47:26.411Z,3.53
2018-09-09T06:52:31.442Z,3.60
2018-09-09T06:57:39.692Z,3.40
2018-09-09T07:02:44.203Z,3.80
2018-09-09T07:07:48.726Z,3.47
2018-09-09T07:12:53.740Z,4.40
2018-09-09T07:17:58.426Z,3.43
2018-09-09T07:23:02.594Z,4.13
2018-09-09T07:28:07.990Z,3.40
2018-09-09T07:33:13.009Z,3.00
2018-09-09T07:38:17.257Z,3.10
2018-09-09T07:43:21.575Z,2.90
2018-09-09T07:48:26.417Z,3.50
2018-09-09T07:53:30.814Z,3.40
2018-09-09T07:58:35.198Z,2.97
2018-09-09T08:03:39.721Z,3.00
2018-09-09T08:14:32.053Z,2.90
2018-09-09T08:19:55.345Z,2.37
2018-09-09T08:24:59.705Z,2.33
2018-09-09T08:30:04.037Z,2.83
2018-09-09T08:35:08.448Z,2.97
2018-09-09T08:40:12.491Z,2.47
2018-09-09T08:45:16.829Z,2.37
2018-09-09T08:50:21.099Z,2.30
2018-09-09T08:55:25.311Z,2.47
2018-09-09T09:00:29.544Z,2.20
2018-09-09T09:05:33.841Z,2.30
2018-09-09T09:10:38.547Z,2.20
2018-09-09T09:15:43.099Z,2.07
2018-09-09T09:20:47.301Z,2.10
2018-09-09T09:36:47.806Z,2.10
2018-09-09T09:41:52.105Z,2.10
2018-09-09T09:46:56.912Z,2.27
2018-09-09T09:52:01.451Z,2.20
2018-09-09T09:57:05.238Z,2.50
2018-09-09T10:02:09.103Z,2.63
2018-09-09T10:07:12.936Z,2.47
2018-09-09T10:12:16.665Z,2.10
2018-09-09T10:17:20.589Z,1.80
2018-09-09T10:22:24.431Z,1.80
2018-09-09T10:27:28.734Z,1.50
2018-09-09T10:32:32.408Z,1.40
2018-09-09T10:37:36.008Z,1.40
2018-09-09T10:42:39.684Z,1.50
2018-09-09T10:47:43.716Z,1.77
2018-09-09T10:52:47.732Z,1.80
2018-09-09T10:57:51.388Z,1.60
2018-09-09T11:02:55.007Z,1.57
2018-09-09T11:07:58.817Z,1.83
2018-09-09T11:13:02.774Z,2.10
2018-09-09T11:23:51.861Z,1.80
2018-09-09T11:34:27.915Z,2.10
2018-09-09T11:39:48.187Z,2.10
2018-09-09T11:44:52.014Z,1.93
2018-09-09T11:49:55.731Z,1.87
2018-09-09T11:54:59.545Z,2.10
2018-09-09T12:00:03.661Z,1.87
2018-09-09T12:05:07.398Z,2.33
2018-09-09T12:10:11.236Z,1.90
2018-09-09T12:15:15.452Z,2.13
2018-09-09T12:20:19.304Z,2.23
2018-09-09T12:25:22.981Z,2.03
2018-09-09T12:30:26.949Z,1.93
2018-09-09T12:35:30.622Z,2.03
2018-09-09T12:40:34.652Z,1.70
2018-09-09T12:45:43.674Z,2.17
2018-09-09T12:50:48.054Z,2.03
2018-09-09T12:55:51.781Z,1.37
2018-09-09T13:00:55.939Z,1.83
2018-09-09T13:05:59.584Z,1.93
2018-09-09T13:11:03.211Z,1.90
2018-09-09T13:16:07.055Z,1.80
2018-09-09T13:21:11.035Z,1.83
2018-09-09T13:26:15.049Z,1.60
2018-09-09T13:31:19.126Z,1.50
2018-09-09T13:36:22.772Z,1.50
2018-09-09T13:41:26.700Z,1.27
2018-09-09T13:46:30.489Z,1.57
2018-09-09T13:51:34.199Z,1.50
2018-09-09T13:56:38.038Z,1.80
2018-09-09T14:01:41.817Z,1.80
2018-09-09T14:06:45.446Z,1.60
2018-09-09T14:11:49.053Z,1.60
2018-09-09T14:16:52.896Z,1.40
2018-09-09T14:21:56.724Z,1.50
2018-09-09T14:27:08.657Z,1.33
2018-09-09T14:32:12.436Z,1.10
2018-09-09T14:37:16.688Z,1.50
2018-09-09T14:42:20.396Z,1.20
2018-09-09T14:47:24.259Z,1.40
2018-09-09T14:52:28.080Z,1.40
2018-09-09T14:57:32.133Z,1.50
2018-09-09T15:02:36.729Z,1.30
2018-09-09T15:13:28.420Z,1.50
2018-09-09T15:18:33.112Z,1.60
2018-09-09T15:23:37.546Z,1.30
2018-09-09T15:28:41.807Z,1.70
2018-09-09T15:33:46.334Z,1.20
2018-09-09T15:38:50.711Z,1.30
2018-09-09T15:43:55.350Z,1.33
2018-09-09T15:48:59.658Z,1.40
2018-09-09T15:54:04.014Z,1.50
2018-09-09T16:04:59.714Z,1.23
2018-09-09T16:10:04.885Z,1.43
2018-09-09T16:15:09.056Z,1.50
2018-09-09T16:20:13.249Z,1.90
2018-09-09T16:25:17.830Z,1.33
2018-09-09T16:30:22.116Z,1.90
2018-09-09T16:35:26.320Z,2.17
2018-09-09T16:40:31.158Z,1.93
2018-09-09T16:45:35.415Z,1.37
2018-09-09T16:56:19.791Z,1.53
2018-09-09T17:01:23.930Z,1.67
2018-09-09T17:06:28.080Z,1.47
2018-09-09T17:11:32.565Z,1.20
2018-09-09T17:16:37.014Z,1.20
2018-09-09T17:21:41.103Z,1.70
2018-09-09T17:26:45.704Z,1.87
2018-09-09T17:32:07.160Z,1.70
2018-09-09T17:37:11.476Z,1.83
2018-09-09T17:42:15.924Z,1.67
2018-09-09T17:47:19.997Z,1.63
2018-09-09T17:52:24.549Z,1.50
2018-09-09T17:57:29.473Z,1.30
2018-09-09T18:24:26.186Z,1.60
2018-09-09T18:46:06.386Z,2.10
2018-09-09T18:51:11.135Z,2.00
2018-09-09T18:56:15.469Z,2.30
2018-09-09T19:01:20.029Z,2.20
2018-09-09T19:06:24.487Z,2.13
2018-09-09T19:11:29.142Z,2.43
2018-09-09T19:16:32.996Z,2.37
2018-09-09T19:21:51.240Z,2.90
2018-09-09T19:26:55.258Z,2.37
2018-09-09T19:31:58.867Z,2.33
2018-09-09T19:37:02.869Z,2.53
2018-09-09T19:42:07.024Z,2.70
2018-09-09T19:52:38.977Z,2.33
2018-09-09T19:57:42.702Z,2.10
2018-09-09T20:02:46.407Z,2.23
2018-09-09T20:07:54.999Z,2.40
2018-09-09T20:12:58.820Z,2.60
2018-09-09T20:18:03.967Z,2.40
2018-09-09T20:23:07.693Z,2.30
2018-09-09T20:28:11.440Z,2.60
2018-09-09T20:33:15.584Z,2.63
2018-09-09T20:38:21.320Z,2.30
2018-09-09T20:43:25.384Z,2.43
2018-09-09T20:48:29.654Z,2.40
2018-09-09T20:53:33.536Z,2.27
2018-09-09T20:58:39.776Z,2.33
2018-09-09T21:03:43.573Z,2.57
2018-09-09T21:08:47.230Z,2.20
2018-09-09T21:13:51.051Z,2.30
2018-09-09T21:18:58.000Z,2.30
2018-09-09T21:24:02.104Z,1.97
2018-09-09T21:29:06.424Z,2.23
2018-09-09T21:34:10.122Z,2.30
2018-09-09T21:39:17.595Z,2.27
2018-09-09T21:44:21.343Z,1.80
2018-09-09T21:49:25.116Z,2.13
2018-09-09T21:54:28.955Z,1.73
2018-09-09T22:05:02.824Z,2.03
2018-09-09T22:10:06.725Z,2.00
2018-09-09T22:15:10.467Z,2.30
2018-09-09T22:20:14.649Z,1.83
2018-09-09T22:25:18.289Z,1.90
2018-09-09T22:30:21.868Z,1.90
2018-09-09T22:35:25.581Z,1.83
2018-09-09T22:40:29.360Z,1.90
2018-09-09T22:45:33.416Z,1.70
2018-09-09T22:50:37.145Z,1.40
2018-09-09T22:55:40.828Z,1.40
2018-09-09T23:00:44.624Z,1.50
2018-09-09T23:05:48.345Z,1.13
2018-09-09T23:10:52.144Z,1.70
2018-09-09T23:15:56.701Z,1.53
2018-09-09T23:21:00.507Z,1.53
2018-09-09T23:26:04.276Z,1.47
2018-09-09T23:31:08.120Z,1.80
2018-09-09T23:36:11.706Z,1.60
2018-09-09T23:41:15.284Z,2.13
2018-09-09T23:46:22.860Z,1.60
2018-09-09T23:51:26.752Z,1.90
2018-09-09T23:56:30.354Z,1.70
